createdAt,value
2022-08-17T00:02:27.284Z,19.95
2022-08-17T00:05:36.755Z,19.85
2022-08-17T00:08:51.023Z,19.80
2022-08-17T00:12:35.567Z,19.72
2022-08-17T00:15:17.167Z,19.69
2022-08-17T00:19:01.268Z,19.69
2022-08-17T00:22:32.563Z,19.65
2022-08-17T00:25:16.594Z,19.71
2022-08-17T00:28:19.084Z,19.74
2022-08-17T00:31:23.856Z,19.68
2022-08-17T00:34:25.705Z,19.59
2022-08-17T00:37:31.481Z,19.50
2022-08-17T00:40:44.507Z,19.47
2022-08-17T00:43:57.636Z,19.43
2022-08-17T00:46:59.364Z,19.50
2022-08-17T00:50:03.575Z,19.49
2022-08-17T00:53:05.940Z,19.47
2022-08-17T00:56:12.316Z,19.48
2022-08-17T00:59:19.197Z,19.46
2022-08-17T01:02:22.298Z,19.51
2022-08-17T01:05:31.766Z,19.49
2022-08-17T01:08:35.319Z,19.48
2022-08-17T01:11:46.740Z,19.56
2022-08-17T01:14:50.656Z,19.60
2022-08-17T01:17:53.254Z,19.56
2022-08-17T01:20:58.117Z,19.48
2022-08-17T01:24:01.475Z,19.51
2022-08-17T01:27:10.479Z,19.36
2022-08-17T01:30:56.662Z,19.21
2022-08-17T01:33:37.907Z,19.11
2022-08-17T01:36:43.557Z,19.08
2022-08-17T01:39:52.951Z,19.01
2022-08-17T01:43:01.371Z,19.04
2022-08-17T01:46:05.106Z,18.95
2022-08-17T01:49:11.369Z,19.02
2022-08-17T01:52:14.073Z,19.02
2022-08-17T01:55:18.554Z,18.93
2022-08-17T01:58:21.788Z,18.88
2022-08-17T02:01:27.786Z,18.84
2022-08-17T02:04:29.829Z,18.86
2022-08-17T02:07:31.675Z,18.92
2022-08-17T02:10:52.281Z,18.91
2022-08-17T02:13:55.067Z,19.02
2022-08-17T02:17:05.169Z,18.93
2022-08-17T02:20:09.396Z,18.89
2022-08-17T02:23:13.020Z,18.78
2022-08-17T02:26:25.900Z,18.85
2022-08-17T02:29:28.851Z,18.79
2022-08-17T02:32:30.699Z,18.89
2022-08-17T02:35:32.624Z,18.89
2022-08-17T02:38:36.502Z,18.92
2022-08-17T02:41:39.422Z,18.76
2022-08-17T02:44:42.363Z,18.68
2022-08-17T02:47:47.326Z,18.60
2022-08-17T02:50:51.717Z,18.58
2022-08-17T02:54:39.148Z,18.56
2022-08-17T02:57:18.471Z,18.47
2022-08-17T03:00:25.216Z,18.47
2022-08-17T03:03:27.684Z,18.40
2022-08-17T03:06:29.759Z,18.35
2022-08-17T03:09:31.684Z,18.39
2022-08-17T03:12:35.373Z,18.38
2022-08-17T03:15:40.572Z,18.43
2022-08-17T03:18:46.094Z,18.44
2022-08-17T03:21:55.216Z,18.41
2022-08-17T03:24:57.455Z,18.23
2022-08-17T03:28:00.039Z,18.25
2022-08-17T03:31:03.335Z,18.22
2022-08-17T03:34:05.251Z,18.30
2022-08-17T03:37:07.369Z,18.30
2022-08-17T03:40:10.173Z,18.29
2022-08-17T03:43:12.409Z,18.34
2022-08-17T03:46:35.016Z,18.33
2022-08-17T03:49:55.912Z,18.29
2022-08-17T03:53:16.488Z,18.27
2022-08-17T03:56:37.038Z,18.33
2022-08-17T03:59:39.467Z,18.47
2022-08-17T04:02:43.320Z,18.49
2022-08-17T04:05:48.207Z,18.52
2022-08-17T04:08:49.968Z,18.41
2022-08-17T04:11:52.339Z,18.43
2022-08-17T04:14:55.147Z,18.58
2022-08-17T04:17:58.429Z,18.73
2022-08-17T04:21:00.497Z,18.77
2022-08-17T04:24:03.105Z,18.54
2022-08-17T04:27:05.108Z,18.58
2022-08-17T04:30:07.792Z,19.07
2022-08-17T04:33:14.334Z,21.22
2022-08-17T04:36:17.185Z,22.57
2022-08-17T04:39:18.987Z,23.63
2022-08-17T04:42:20.997Z,24.35
2022-08-17T04:45:22.772Z,24.44
2022-08-17T04:48:36.955Z,23.51
2022-08-17T04:51:54.686Z,22.37
2022-08-17T04:54:58.856Z,21.87
2022-08-17T04:58:00.806Z,21.38
2022-08-17T05:01:03.633Z,20.80
2022-08-17T05:04:32.903Z,20.99
2022-08-17T05:07:31.720Z,20.92
2022-08-17T05:10:37.358Z,20.69
2022-08-17T05:13:50.303Z,20.81
2022-08-17T05:16:52.333Z,20.96
2022-08-17T05:19:54.425Z,21.24
2022-08-17T05:22:58.709Z,21.52
2022-08-17T05:26:00.614Z,21.36
2022-08-17T05:29:04.130Z,21.08
2022-08-17T05:32:38.059Z,21.01
2022-08-17T05:35:35.680Z,20.79
2022-08-17T05:38:38.124Z,21.06
2022-08-17T05:41:40.109Z,21.20
2022-08-17T05:44:41.914Z,21.17
2022-08-17T05:47:44.976Z,21.15
2022-08-17T05:50:54.449Z,21.32
2022-08-17T05:54:08.787Z,21.26
2022-08-17T05:57:53.478Z,21.47
2022-08-17T06:01:21.084Z,21.39
2022-08-17T06:04:41.692Z,21.55
2022-08-17T06:07:49.687Z,21.66
2022-08-17T06:11:37.289Z,21.97
2022-08-17T06:15:01.630Z,22.29
2022-08-17T06:18:06.937Z,22.43
2022-08-17T06:21:13.299Z,23.01
2022-08-17T06:24:43.241Z,23.17
2022-08-17T06:27:53.715Z,23.75
2022-08-17T06:31:01.479Z,23.69
2022-08-17T06:34:10.217Z,23.91
2022-08-17T06:37:31.341Z,24.08
2022-08-17T06:40:57.033Z,24.07
2022-08-17T06:44:49.798Z,24.45
2022-08-17T06:47:42.987Z,24.81
2022-08-17T06:50:50.043Z,25.06
2022-08-17T06:53:59.708Z,25.11
2022-08-17T06:57:16.782Z,25.38
2022-08-17T07:00:24.619Z,25.41
2022-08-17T07:03:45.497Z,25.59
2022-08-17T07:06:51.737Z,25.87
2022-08-17T07:09:57.682Z,26.06
2022-08-17T07:13:10.365Z,25.92
2022-08-17T07:16:19.604Z,26.12
2022-08-17T07:19:23.795Z,26.24
2022-08-17T07:23:07.106Z,26.47
2022-08-17T07:26:09.779Z,26.46
2022-08-17T07:29:17.013Z,26.29
2022-08-17T07:32:40.955Z,26.62
2022-08-17T07:35:44.966Z,27.08
2022-08-17T07:38:58.994Z,27.27
2022-08-17T07:42:05.127Z,27.34
2022-08-17T07:45:28.509Z,27.69
2022-08-17T07:48:36.292Z,27.65
2022-08-17T07:51:41.158Z,27.69
2022-08-17T07:54:43.383Z,27.93
2022-08-17T07:57:55.254Z,27.84
2022-08-17T08:01:13.512Z,28.09
2022-08-17T08:04:43.162Z,28.10
2022-08-17T08:07:48.515Z,28.20
2022-08-17T08:11:10.656Z,28.63
2022-08-17T08:14:34.253Z,28.70
2022-08-17T08:17:47.290Z,28.81
2022-08-17T08:20:54.151Z,29.05
2022-08-17T08:24:26.174Z,29.08
2022-08-17T08:28:08.219Z,29.23
2022-08-17T08:31:26.700Z,29.30
2022-08-17T08:35:02.022Z,29.66
2022-08-17T08:38:09.493Z,29.77
2022-08-17T08:41:19.988Z,29.84
2022-08-17T08:45:04.133Z,29.83
2022-08-17T08:48:46.030Z,30.12
2022-08-17T08:51:56.137Z,30.24
2022-08-17T08:55:26.259Z,30.46
2022-08-17T08:58:50.908Z,30.52
2022-08-17T09:02:20.574Z,30.52
2022-08-17T09:05:30.558Z,30.56
2022-08-17T09:08:55.359Z,30.43
2022-08-17T09:12:25.750Z,30.77
2022-08-17T09:15:32.245Z,30.79
2022-08-17T09:19:03.583Z,30.84
2022-08-17T09:22:21.527Z,31.27
2022-08-17T09:25:29.930Z,30.86
2022-08-17T09:28:37.515Z,31.17
2022-08-17T09:31:49.933Z,31.72
2022-08-17T09:35:00.516Z,31.27
2022-08-17T09:38:02.780Z,31.66
2022-08-17T09:41:48.741Z,31.49
2022-08-17T09:45:00.166Z,31.12
2022-08-17T09:48:08.967Z,31.77
2022-08-17T09:51:21.683Z,31.70
2022-08-17T09:54:40.276Z,31.50
2022-08-17T09:58:11.999Z,31.69
2022-08-17T10:01:31.951Z,31.45
2022-08-17T10:05:07.241Z,31.69
2022-08-17T10:08:24.425Z,31.69
2022-08-17T10:11:58.711Z,32.01
2022-08-17T10:15:42.800Z,32.08
2022-08-17T10:18:47.968Z,31.87
2022-08-17T10:22:14.660Z,32.09
2022-08-17T10:25:55.916Z,32.44
2022-08-17T10:29:06.909Z,32.11
2022-08-17T10:32:14.620Z,32.18
2022-08-17T10:35:34.424Z,32.82
2022-08-17T10:38:50.246Z,32.86
2022-08-17T10:41:56.173Z,32.61
2022-08-17T10:45:36.106Z,32.68
2022-08-17T10:48:39.197Z,33.14
2022-08-17T10:51:42.147Z,33.12
2022-08-17T10:54:48.678Z,32.79
2022-08-17T10:57:51.001Z,32.96
2022-08-17T11:00:57.663Z,33.07
2022-08-17T11:04:21.617Z,33.59
2022-08-17T11:07:32.658Z,33.70
2022-08-17T11:10:55.982Z,33.60
2022-08-17T11:14:30.154Z,33.40
2022-08-17T11:17:50.467Z,33.17
2022-08-17T11:21:40.638Z,33.84
2022-08-17T11:24:48.137Z,34.49
2022-08-17T11:27:54.014Z,33.80
2022-08-17T11:30:59.456Z,33.50
2022-08-17T11:34:05.179Z,33.67
2022-08-17T11:37:29.073Z,33.92
2022-08-17T11:40:34.230Z,34.13
2022-08-17T11:43:44.705Z,34.74
2022-08-17T11:47:18.595Z,34.93
2022-08-17T11:50:39.225Z,34.60
2022-08-17T11:53:41.279Z,34.18
2022-08-17T11:56:49.097Z,34.21
2022-08-17T11:59:54.290Z,34.84
2022-08-17T12:03:26.870Z,35.00
2022-08-17T12:06:51.835Z,35.03
2022-08-17T12:09:54.301Z,35.61
2022-08-17T12:12:56.458Z,35.09
2022-08-17T12:15:59.082Z,34.69
2022-08-17T12:19:02.855Z,34.62
2022-08-17T12:22:26.934Z,34.29
2022-08-17T12:26:12.458Z,33.94
2022-08-17T12:29:18.211Z,34.57
2022-08-17T12:32:40.790Z,35.48
2022-08-17T12:35:43.530Z,34.94
2022-08-17T12:39:12.872Z,35.30
2022-08-17T12:42:35.175Z,35.18
2022-08-17T12:45:42.044Z,35.09
2022-08-17T12:48:55.076Z,35.07
2022-08-17T12:52:15.511Z,35.50
2022-08-17T12:55:23.203Z,35.59
2022-08-17T12:58:34.010Z,35.85
2022-08-17T13:01:42.008Z,36.15
2022-08-17T13:04:44.507Z,36.69
2022-08-17T13:07:47.240Z,36.20
2022-08-17T13:11:02.418Z,35.20
2022-08-17T13:14:11.107Z,35.93
2022-08-17T13:17:14.087Z,36.41
2022-08-17T13:20:16.528Z,36.54
2022-08-17T13:23:20.149Z,36.80
2022-08-17T13:26:29.726Z,36.60
2022-08-17T13:29:31.837Z,35.96
2022-08-17T13:32:36.311Z,35.91
2022-08-17T13:35:39.898Z,36.23
2022-08-17T13:38:52.762Z,36.40
2022-08-17T13:41:56.540Z,36.51
2022-08-17T13:44:59.241Z,36.47
2022-08-17T13:48:16.672Z,36.28
2022-08-17T13:51:42.418Z,36.20
2022-08-17T13:54:51.372Z,36.34
2022-08-17T13:58:07.181Z,36.29
2022-08-17T14:01:28.903Z,36.12
2022-08-17T14:04:32.175Z,36.14
2022-08-17T14:07:37.526Z,36.13
2022-08-17T14:10:39.427Z,35.48
2022-08-17T14:13:41.489Z,36.17
2022-08-17T14:16:44.218Z,36.77
2022-08-17T14:19:46.197Z,36.85
2022-08-17T14:22:54.418Z,36.11
2022-08-17T14:25:56.458Z,35.98
2022-08-17T14:28:58.470Z,35.26
2022-08-17T14:32:15.210Z,35.04
2022-08-17T14:35:17.764Z,34.96
2022-08-17T14:38:20.258Z,35.59
2022-08-17T14:41:23.829Z,36.01
2022-08-17T14:44:25.783Z,36.18
2022-08-17T14:47:27.671Z,35.85
2022-08-17T14:50:29.885Z,36.14
2022-08-17T14:53:33.970Z,36.30
2022-08-17T14:56:38.068Z,36.14
2022-08-17T14:59:40.280Z,36.12
2022-08-17T15:02:46.129Z,35.80
2022-08-17T15:05:48.700Z,34.92
2022-08-17T15:08:51.470Z,34.98
2022-08-17T15:11:54.106Z,35.21
2022-08-17T15:14:57.175Z,34.98
2022-08-17T15:18:00.381Z,34.95
2022-08-17T15:21:05.929Z,34.94
2022-08-17T15:24:09.588Z,34.38
2022-08-17T15:27:11.629Z,34.50
2022-08-17T15:30:15.451Z,34.20
2022-08-17T15:33:21.354Z,34.33
2022-08-17T15:36:23.503Z,34.46
2022-08-17T15:39:25.536Z,34.06
2022-08-17T15:42:29.429Z,34.21
2022-08-17T15:45:33.936Z,33.67
2022-08-17T15:48:42.563Z,33.68
2022-08-17T15:51:44.607Z,33.68
2022-08-17T15:54:51.419Z,33.24
2022-08-17T15:57:53.772Z,33.42
2022-08-17T16:01:14.824Z,33.06
2022-08-17T16:04:26.529Z,33.14
2022-08-17T16:07:32.441Z,33.12
2022-08-17T16:10:35.698Z,33.05
2022-08-17T16:13:39.774Z,32.98
2022-08-17T16:16:42.103Z,32.98
2022-08-17T16:19:44.745Z,32.83
2022-08-17T16:22:47.212Z,32.56
2022-08-17T16:25:53.432Z,32.52
2022-08-17T16:28:57.783Z,32.22
2022-08-17T16:32:09.097Z,32.02
2022-08-17T16:35:12.466Z,32.10
2022-08-17T16:38:14.330Z,32.09
2022-08-17T16:41:36.613Z,32.01
2022-08-17T16:44:38.489Z,31.98
2022-08-17T16:47:46.008Z,31.90
2022-08-17T16:51:03.503Z,31.76
2022-08-17T16:54:07.278Z,31.98
2022-08-17T16:57:15.031Z,31.93
2022-08-17T17:00:18.359Z,31.71
2022-08-17T17:03:23.930Z,31.50
2022-08-17T17:06:40.132Z,31.27
2022-08-17T17:09:43.918Z,31.17
2022-08-17T17:13:01.689Z,30.92
2022-08-17T17:16:09.240Z,30.64
2022-08-17T17:19:11.235Z,30.49
2022-08-17T17:22:30.405Z,30.28
2022-08-17T17:25:49.014Z,30.17
2022-08-17T17:29:23.523Z,29.98
2022-08-17T17:32:38.035Z,29.80
2022-08-17T17:35:57.397Z,29.55
2022-08-17T17:39:05.480Z,29.51
2022-08-17T17:42:20.201Z,29.30
2022-08-17T17:45:26.186Z,29.16
2022-08-17T17:48:29.165Z,28.94
2022-08-17T17:52:10.955Z,28.87
2022-08-17T17:55:35.942Z,28.66
2022-08-17T17:58:50.045Z,28.56
2022-08-17T18:02:07.465Z,28.37
2022-08-17T18:05:21.386Z,28.19
2022-08-17T18:08:45.888Z,28.03
2022-08-17T18:12:08.802Z,27.86
2022-08-17T18:15:41.094Z,27.66
2022-08-17T18:18:47.011Z,27.72
2022-08-17T18:21:56.714Z,27.33
2022-08-17T18:24:59.266Z,27.54
2022-08-17T18:28:02.402Z,27.43
2022-08-17T18:31:17.701Z,27.24
2022-08-17T18:34:43.819Z,27.16
2022-08-17T18:37:53.100Z,27.00
2022-08-17T18:41:21.006Z,26.84
2022-08-17T18:44:31.424Z,26.76
2022-08-17T18:47:34.325Z,26.79
2022-08-17T18:50:41.597Z,26.70
2022-08-17T18:53:44.250Z,26.66
2022-08-17T18:57:12.816Z,26.44
2022-08-17T19:00:26.765Z,26.41
2022-08-17T19:03:29.730Z,26.41
2022-08-17T19:06:34.342Z,26.39
2022-08-17T19:09:40.822Z,26.31
2022-08-17T19:13:12.961Z,26.26
2022-08-17T19:16:39.323Z,26.04
2022-08-17T19:19:58.595Z,25.97
2022-08-17T19:23:36.082Z,25.85
2022-08-17T19:26:53.474Z,25.92
2022-08-17T19:30:07.142Z,25.98
2022-08-17T19:33:11.317Z,26.00
2022-08-17T19:36:36.299Z,26.00
2022-08-17T19:39:41.313Z,25.88
2022-08-17T19:42:52.614Z,25.75
2022-08-17T19:46:18.482Z,25.66
2022-08-17T19:49:45.786Z,25.67
2022-08-17T19:53:04.302Z,25.63
2022-08-17T19:56:35.480Z,25.45
2022-08-17T19:59:51.255Z,25.26
2022-08-17T20:03:06.457Z,25.29
2022-08-17T20:06:14.169Z,25.27
2022-08-17T20:09:24.314Z,25.13
2022-08-17T20:12:35.996Z,24.97
2022-08-17T20:15:39.944Z,24.75
2022-08-17T20:19:04.300Z,24.75
2022-08-17T20:22:11.811Z,24.96
2022-08-17T20:25:30.413Z,24.90
2022-08-17T20:28:35.556Z,24.99
2022-08-17T20:31:49.051Z,24.97
2022-08-17T20:35:04.835Z,24.84
2022-08-17T20:38:08.350Z,24.79
2022-08-17T20:41:17.139Z,24.78
2022-08-17T20:44:32.682Z,24.56
2022-08-17T20:48:01.173Z,24.64
2022-08-17T20:51:29.899Z,24.55
2022-08-17T20:55:03.544Z,24.47
2022-08-17T20:58:16.410Z,24.48
2022-08-17T21:01:36.508Z,24.55
2022-08-17T21:04:50.563Z,24.46
2022-08-17T21:07:56.801Z,24.45
2022-08-17T21:11:03.872Z,24.17
2022-08-17T21:14:26.193Z,24.21
2022-08-17T21:18:06.981Z,24.16
2022-08-17T21:21:17.561Z,24.08
2022-08-17T21:24:31.741Z,24.08
2022-08-17T21:27:56.749Z,23.99
2022-08-17T21:31:06.711Z,23.93
2022-08-17T21:34:26.308Z,23.85
2022-08-17T21:37:35.533Z,23.83
2022-08-17T21:40:37.671Z,23.82
2022-08-17T21:43:48.128Z,23.75
2022-08-17T21:46:52.441Z,23.72
2022-08-17T21:49:55.532Z,23.65
2022-08-17T21:52:58.735Z,23.53
2022-08-17T21:56:00.995Z,23.34
2022-08-17T21:59:06.663Z,23.44
2022-08-17T22:02:17.563Z,23.44
2022-08-17T22:05:31.509Z,23.35
2022-08-17T22:08:35.532Z,23.32
2022-08-17T22:11:57.900Z,23.28
2022-08-17T22:15:01.114Z,23.36
2022-08-17T22:18:06.451Z,23.39
2022-08-17T22:21:09.075Z,23.33
2022-08-17T22:24:23.370Z,23.37
2022-08-17T22:27:52.648Z,23.32
2022-08-17T22:31:05.945Z,23.31
2022-08-17T22:34:14.113Z,23.32
2022-08-17T22:37:29.235Z,23.19
2022-08-17T22:40:33.376Z,23.24
2022-08-17T22:43:38.586Z,23.17
2022-08-17T22:47:02.725Z,23.17
2022-08-17T22:50:13.278Z,23.18
2022-08-17T22:53:37.516Z,23.16
2022-08-17T22:57:18.707Z,23.06
2022-08-17T23:00:33.862Z,22.87
2022-08-17T23:03:53.917Z,22.78
2022-08-17T23:06:56.092Z,22.75
2022-08-17T23:10:00.704Z,22.71
2022-08-17T23:13:03.187Z,22.75
2022-08-17T23:16:05.227Z,22.75
2022-08-17T23:19:08.553Z,22.76
2022-08-17T23:22:11.569Z,22.73
2022-08-17T23:25:17.722Z,22.67
2022-08-17T23:28:22.762Z,22.53
2022-08-17T23:31:25.785Z,22.49
2022-08-17T23:34:30.291Z,22.45
2022-08-17T23:37:32.907Z,22.41
2022-08-17T23:40:34.735Z,22.43
2022-08-17T23:43:39.306Z,22.50
2022-08-17T23:46:41.777Z,22.52
2022-08-17T23:49:44.278Z,22.48
2022-08-17T23:52:47.554Z,22.31
2022-08-17T23:56:09.017Z,22.22
2022-08-17T23:59:13.911Z,22.19
